X  Schließen METAR Luftfahrt Wetterdaten     LGBL Nea Anchialos National Airport
Temperatur
22°C Temperatur
16°C Taupunkt
69% Feuchtigkeit



Wind
5 KM/S
3 MPS
1 M/S
3 KTS



Kein Wind
N
Aktuelle Wetterlage

Teilweise bewölkt Teilweise bewölkt
Luftdruck 1007.79 (hPa) - 29.76 (inHg)
Sichtweite 6 (Meile) - 9.7 (Km)
Flughafen
Flughafen Code LGBL

Position : Nea Anchialos National Airport
Entfernung: 74 (Km)

Metar:
LGBL 140150Z VRB03KT 9999 FEW035 22/16 Q1008

Zeit: 14-06-2024 04:50 EEST